sensor_id;sensor_type;location;lat;lon;timestamp;P1;durP1;ratioP1;P2;durP2;ratioP2
39324;SDS011;25037;49.488;9.900;2022-09-21T00:00:09;4.38;;;2.15;;
39324;SDS011;25037;49.488;9.900;2022-09-21T00:02:35;4.18;;;1.75;;
39324;SDS011;25037;49.488;9.900;2022-09-21T00:05:00;6.55;;;2.08;;
39324;SDS011;25037;49.488;9.900;2022-09-21T00:07:26;1.30;;;0.82;;
39324;SDS011;25037;49.488;9.900;2022-09-21T00:09:51;4.13;;;1.63;;
39324;SDS011;25037;49.488;9.900;2022-09-21T00:12:17;3.28;;;1.50;;
39324;SDS011;25037;49.488;9.900;2022-09-21T00:14:43;3.40;;;1.90;;
39324;SDS011;25037;49.488;9.900;2022-09-21T00:17:09;3.65;;;1.73;;
39324;SDS011;25037;49.488;9.900;2022-09-21T00:19:34;5.97;;;1.90;;
39324;SDS011;25037;49.488;9.900;2022-09-21T00:22:00;5.45;;;1.90;;
39324;SDS011;25037;49.488;9.900;2022-09-21T00:24:25;7.03;;;2.38;;
39324;SDS011;25037;49.488;9.900;2022-09-21T00:26:51;8.45;;;2.33;;
39324;SDS011;25037;49.488;9.900;2022-09-21T00:29:17;4.47;;;1.80;;
39324;SDS011;25037;49.488;9.900;2022-09-21T00:31:42;2.88;;;1.60;;
39324;SDS011;25037;49.488;9.900;2022-09-21T00:34:08;3.80;;;1.35;;
39324;SDS011;25037;49.488;9.900;2022-09-21T00:36:33;2.35;;;1.30;;
39324;SDS011;25037;49.488;9.900;2022-09-21T00:39:00;20.90;;;2.13;;
39324;SDS011;25037;49.488;9.900;2022-09-21T00:41:27;5.68;;;1.70;;
39324;SDS011;25037;49.488;9.900;2022-09-21T00:46:51;8.13;;;2.05;;
39324;SDS011;25037;49.488;9.900;2022-09-21T00:49:18;9.40;;;1.60;;
39324;SDS011;25037;49.488;9.900;2022-09-21T00:51:45;3.92;;;1.70;;
39324;SDS011;25037;49.488;9.900;2022-09-21T00:54:13;7.90;;;1.92;;
39324;SDS011;25037;49.488;9.900;2022-09-21T00:56:43;4.03;;;1.88;;
39324;SDS011;25037;49.488;9.900;2022-09-21T00:59:10;7.82;;;2.05;;
39324;SDS011;25037;49.488;9.900;2022-09-21T01:01:37;11.20;;;2.17;;
39324;SDS011;25037;49.488;9.900;2022-09-21T01:04:03;4.30;;;2.15;;
39324;SDS011;25037;49.488;9.900;2022-09-21T01:06:31;15.13;;;2.88;;
39324;SDS011;25037;49.488;9.900;2022-09-21T01:08:57;23.90;;;3.20;;
39324;SDS011;25037;49.488;9.900;2022-09-21T01:16:47;34.10;;;2.30;;
39324;SDS011;25037;49.488;9.900;2022-09-21T01:27:06;7.35;;;1.75;;
39324;SDS011;25037;49.488;9.900;2022-09-21T01:30:02;5.43;;;1.50;;
39324;SDS011;25037;49.488;9.900;2022-09-21T01:38:05;3.75;;;1.48;;
39324;SDS011;25037;49.488;9.900;2022-09-21T01:40:38;3.38;;;1.60;;
39324;SDS011;25037;49.488;9.900;2022-09-21T01:43:08;2.58;;;1.48;;
39324;SDS011;25037;49.488;9.900;2022-09-21T01:45:38;4.07;;;1.50;;
39324;SDS011;25037;49.488;9.900;2022-09-21T01:48:07;2.55;;;1.05;;
39324;SDS011;25037;49.488;9.900;2022-09-21T01:50:35;16.23;;;1.73;;
39324;SDS011;25037;49.488;9.900;2022-09-21T01:53:05;4.28;;;1.23;;
39324;SDS011;25037;49.488;9.900;2022-09-21T01:55:38;2.60;;;1.52;;
39324;SDS011;25037;49.488;9.900;2022-09-21T02:01:24;2.95;;;1.20;;
39324;SDS011;25037;49.488;9.900;2022-09-21T02:04:00;2.35;;;1.30;;
39324;SDS011;25037;49.488;9.900;2022-09-21T02:06:32;1.73;;;0.90;;
39324;SDS011;25037;49.488;9.900;2022-09-21T02:08:58;7.45;;;1.00;;
39324;SDS011;25037;49.488;9.900;2022-09-21T02:11:23;11.20;;;1.70;;
39324;SDS011;25037;49.488;9.900;2022-09-21T02:13:49;3.35;;;1.23;;
39324;SDS011;25037;49.488;9.900;2022-09-21T02:19:13;2.95;;;0.80;;
39324;SDS011;25037;49.488;9.900;2022-09-21T02:27:14;2.22;;;1.00;;
39324;SDS011;25037;49.488;9.900;2022-09-21T02:29:59;2.28;;;1.08;;
39324;SDS011;25037;49.488;9.900;2022-09-21T02:32:29;2.53;;;1.33;;
39324;SDS011;25037;49.488;9.900;2022-09-21T02:43:34;2.60;;;1.33;;
39324;SDS011;25037;49.488;9.900;2022-09-21T02:46:05;1.83;;;0.90;;
39324;SDS011;25037;49.488;9.900;2022-09-21T02:49:02;2.10;;;0.90;;
39324;SDS011;25037;49.488;9.900;2022-09-21T02:51:28;2.60;;;0.95;;
39324;SDS011;25037;49.488;9.900;2022-09-21T02:53:58;5.60;;;1.05;;
39324;SDS011;25037;49.488;9.900;2022-09-21T02:56:29;3.53;;;1.40;;
39324;SDS011;25037;49.488;9.900;2022-09-21T02:58:55;3.17;;;1.70;;
39324;SDS011;25037;49.488;9.900;2022-09-21T03:01:25;2.40;;;1.48;;
39324;SDS011;25037;49.488;9.900;2022-09-21T03:03:51;4.40;;;1.33;;
39324;SDS011;25037;49.488;9.900;2022-09-21T03:06:17;1.85;;;0.95;;
39324;SDS011;25037;49.488;9.900;2022-09-21T03:08:43;2.13;;;1.33;;
39324;SDS011;25037;49.488;9.900;2022-09-21T03:11:08;4.32;;;1.35;;
39324;SDS011;25037;49.488;9.900;2022-09-21T03:13:35;2.53;;;1.02;;
39324;SDS011;25037;49.488;9.900;2022-09-21T03:16:02;3.50;;;1.20;;
39324;SDS011;25037;49.488;9.900;2022-09-21T03:18:29;4.00;;;0.98;;
39324;SDS011;25037;49.488;9.900;2022-09-21T03:20:56;2.60;;;1.33;;
39324;SDS011;25037;49.488;9.900;2022-09-21T03:23:22;2.35;;;1.10;;
39324;SDS011;25037;49.488;9.900;2022-09-21T03:25:48;3.33;;;1.85;;
39324;SDS011;25037;49.488;9.900;2022-09-21T03:28:14;4.45;;;1.45;;
39324;SDS011;25037;49.488;9.900;2022-09-21T03:30:40;5.65;;;1.40;;
39324;SDS011;25037;49.488;9.900;2022-09-21T03:33:06;3.35;;;1.20;;
39324;SDS011;25037;49.488;9.900;2022-09-21T03:35:32;3.25;;;1.25;;
39324;SDS011;25037;49.488;9.900;2022-09-21T03:37:58;2.40;;;1.40;;
39324;SDS011;25037;49.488;9.900;2022-09-21T03:40:24;2.83;;;0.90;;
39324;SDS011;25037;49.488;9.900;2022-09-21T03:42:51;2.55;;;1.48;;
39324;SDS011;25037;49.488;9.900;2022-09-21T03:45:17;1.80;;;0.82;;
39324;SDS011;25037;49.488;9.900;2022-09-21T03:47:42;2.00;;;1.00;;
39324;SDS011;25037;49.488;9.900;2022-09-21T03:50:08;3.60;;;1.60;;
39324;SDS011;25037;49.488;9.900;2022-09-21T03:52:34;3.50;;;1.30;;
39324;SDS011;25037;49.488;9.900;2022-09-21T03:55:03;4.80;;;1.08;;
39324;SDS011;25037;49.488;9.900;2022-09-21T03:57:30;1.98;;;1.27;;
39324;SDS011;25037;49.488;9.900;2022-09-21T03:59:56;3.72;;;1.45;;
39324;SDS011;25037;49.488;9.900;2022-09-21T04:02:22;2.00;;;1.00;;
39324;SDS011;25037;49.488;9.900;2022-09-21T04:04:47;3.35;;;1.10;;
39324;SDS011;25037;49.488;9.900;2022-09-21T04:07:13;17.77;;;1.63;;
39324;SDS011;25037;49.488;9.900;2022-09-21T04:09:39;14.88;;;1.65;;
39324;SDS011;25037;49.488;9.900;2022-09-21T04:12:05;7.70;;;1.40;;
39324;SDS011;25037;49.488;9.900;2022-09-21T04:14:31;4.25;;;1.45;;
39324;SDS011;25037;49.488;9.900;2022-09-21T04:16:57;6.25;;;1.30;;
39324;SDS011;25037;49.488;9.900;2022-09-21T04:19:23;5.97;;;1.63;;
39324;SDS011;25037;49.488;9.900;2022-09-21T04:21:49;3.15;;;1.88;;
39324;SDS011;25037;49.488;9.900;2022-09-21T04:24:17;4.25;;;1.63;;
39324;SDS011;25037;49.488;9.900;2022-09-21T04:26:45;5.40;;;1.67;;
39324;SDS011;25037;49.488;9.900;2022-09-21T04:29:12;2.53;;;1.48;;
39324;SDS011;25037;49.488;9.900;2022-09-21T04:31:38;3.55;;;1.50;;
39324;SDS011;25037;49.488;9.900;2022-09-21T04:34:04;3.22;;;1.85;;
39324;SDS011;25037;49.488;9.900;2022-09-21T04:36:30;3.13;;;1.60;;
39324;SDS011;25037;49.488;9.900;2022-09-21T04:38:56;17.95;;;2.15;;
39324;SDS011;25037;49.488;9.900;2022-09-21T04:41:24;4.45;;;1.90;;
39324;SDS011;25037;49.488;9.900;2022-09-21T04:43:51;18.23;;;2.40;;
39324;SDS011;25037;49.488;9.900;2022-09-21T04:46:17;24.77;;;3.08;;
39324;SDS011;25037;49.488;9.900;2022-09-21T04:48:43;9.57;;;1.50;;
39324;SDS011;25037;49.488;9.900;2022-09-21T04:51:10;5.30;;;1.88;;
39324;SDS011;25037;49.488;9.900;2022-09-21T04:53:37;7.88;;;2.28;;
39324;SDS011;25037;49.488;9.900;2022-09-21T04:56:04;6.20;;;1.88;;
39324;SDS011;25037;49.488;9.900;2022-09-21T04:58:31;10.15;;;1.70;;
39324;SDS011;25037;49.488;9.900;2022-09-21T05:00:57;7.88;;;1.55;;
39324;SDS011;25037;49.488;9.900;2022-09-21T05:03:23;5.60;;;1.48;;
39324;SDS011;25037;49.488;9.900;2022-09-21T05:05:51;11.30;;;1.33;;
39324;SDS011;25037;49.488;9.900;2022-09-21T05:08:19;12.88;;;2.15;;
39324;SDS011;25037;49.488;9.900;2022-09-21T05:11:06;2.85;;;1.33;;
39324;SDS011;25037;49.488;9.900;2022-09-21T05:13:32;6.95;;;1.80;;
39324;SDS011;25037;49.488;9.900;2022-09-21T05:15:58;23.00;;;2.28;;
39324;SDS011;25037;49.488;9.900;2022-09-21T05:18:23;8.73;;;1.52;;
39324;SDS011;25037;49.488;9.900;2022-09-21T05:20:52;13.38;;;1.50;;
39324;SDS011;25037;49.488;9.900;2022-09-21T05:23:22;4.88;;;1.70;;
39324;SDS011;25037;49.488;9.900;2022-09-21T05:25:48;3.53;;;1.17;;
39324;SDS011;25037;49.488;9.900;2022-09-21T05:28:17;6.93;;;1.20;;
39324;SDS011;25037;49.488;9.900;2022-09-21T05:30:45;2.38;;;0.93;;
39324;SDS011;25037;49.488;9.900;2022-09-21T05:33:29;8.02;;;1.10;;
39324;SDS011;25037;49.488;9.900;2022-09-21T05:38:32;4.50;;;1.13;;
39324;SDS011;25037;49.488;9.900;2022-09-21T05:40:58;3.03;;;1.17;;
39324;SDS011;25037;49.488;9.900;2022-09-21T05:43:24;8.52;;;1.90;;
39324;SDS011;25037;49.488;9.900;2022-09-21T05:45:51;11.15;;;2.08;;
39324;SDS011;25037;49.488;9.900;2022-09-21T05:48:31;3.05;;;1.15;;
39324;SDS011;25037;49.488;9.900;2022-09-21T05:54:02;7.75;;;2.05;;
39324;SDS011;25037;49.488;9.900;2022-09-21T05:59:43;10.95;;;2.00;;
39324;SDS011;25037;49.488;9.900;2022-09-21T06:02:27;4.38;;;1.58;;
39324;SDS011;25037;49.488;9.900;2022-09-21T06:05:12;9.05;;;1.60;;
39324;SDS011;25037;49.488;9.900;2022-09-21T06:07:39;36.22;;;2.70;;
39324;SDS011;25037;49.488;9.900;2022-09-21T06:10:05;13.90;;;2.13;;
39324;SDS011;25037;49.488;9.900;2022-09-21T06:12:32;5.88;;;1.88;;
39324;SDS011;25037;49.488;9.900;2022-09-21T06:14:58;14.70;;;1.98;;
39324;SDS011;25037;49.488;9.900;2022-09-21T06:17:23;4.90;;;2.20;;
39324;SDS011;25037;49.488;9.900;2022-09-21T06:19:51;9.05;;;1.65;;
39324;SDS011;25037;49.488;9.900;2022-09-21T06:22:17;18.20;;;2.22;;
39324;SDS011;25037;49.488;9.900;2022-09-21T06:24:43;2.78;;;1.58;;
39324;SDS011;25037;49.488;9.900;2022-09-21T06:27:08;5.15;;;2.20;;
39324;SDS011;25037;49.488;9.900;2022-09-21T06:29:34;9.20;;;1.70;;
39324;SDS011;25037;49.488;9.900;2022-09-21T06:32:00;4.00;;;1.80;;
39324;SDS011;25037;49.488;9.900;2022-09-21T06:34:29;25.27;;;2.20;;
39324;SDS011;25037;49.488;9.900;2022-09-21T06:36:55;13.45;;;1.90;;
39324;SDS011;25037;49.488;9.900;2022-09-21T06:39:20;14.60;;;2.28;;
39324;SDS011;25037;49.488;9.900;2022-09-21T06:41:46;6.63;;;2.25;;
39324;SDS011;25037;49.488;9.900;2022-09-21T06:44:11;11.50;;;2.15;;
39324;SDS011;25037;49.488;9.900;2022-09-21T06:46:37;4.05;;;2.03;;
39324;SDS011;25037;49.488;9.900;2022-09-21T06:49:03;13.32;;;2.72;;
39324;SDS011;25037;49.488;9.900;2022-09-21T06:51:28;4.63;;;3.00;;
39324;SDS011;25037;49.488;9.900;2022-09-21T06:53:54;7.65;;;1.92;;
39324;SDS011;25037;49.488;9.900;2022-09-21T06:56:20;4.03;;;2.15;;
39324;SDS011;25037;49.488;9.900;2022-09-21T06:58:46;16.02;;;2.97;;
39324;SDS011;25037;49.488;9.900;2022-09-21T07:01:12;6.10;;;2.67;;
39324;SDS011;25037;49.488;9.900;2022-09-21T07:03:39;4.35;;;2.50;;
39324;SDS011;25037;49.488;9.900;2022-09-21T07:06:05;9.70;;;3.03;;
39324;SDS011;25037;49.488;9.900;2022-09-21T07:08:32;4.43;;;2.28;;
39324;SDS011;25037;49.488;9.900;2022-09-21T07:10:59;7.97;;;2.47;;
39324;SDS011;25037;49.488;9.900;2022-09-21T07:13:26;7.00;;;2.35;;
39324;SDS011;25037;49.488;9.900;2022-09-21T07:15:53;4.30;;;2.47;;
39324;SDS011;25037;49.488;9.900;2022-09-21T07:18:18;10.57;;;2.97;;
39324;SDS011;25037;49.488;9.900;2022-09-21T07:20:45;4.95;;;3.00;;
39324;SDS011;25037;49.488;9.900;2022-09-21T07:23:13;6.78;;;3.28;;
39324;SDS011;25037;49.488;9.900;2022-09-21T07:25:43;4.18;;;2.55;;
39324;SDS011;25037;49.488;9.900;2022-09-21T07:28:10;4.43;;;2.85;;
39324;SDS011;25037;49.488;9.900;2022-09-21T07:30:37;7.10;;;3.70;;
39324;SDS011;25037;49.488;9.900;2022-09-21T07:33:04;6.55;;;3.38;;
39324;SDS011;25037;49.488;9.900;2022-09-21T07:35:30;7.18;;;3.17;;
39324;SDS011;25037;49.488;9.900;2022-09-21T07:37:59;5.43;;;3.05;;
39324;SDS011;25037;49.488;9.900;2022-09-21T07:40:27;18.08;;;3.28;;
39324;SDS011;25037;49.488;9.900;2022-09-21T07:42:56;4.95;;;3.35;;
39324;SDS011;25037;49.488;9.900;2022-09-21T07:45:22;10.48;;;3.17;;
39324;SDS011;25037;49.488;9.900;2022-09-21T07:47:49;8.35;;;3.67;;
39324;SDS011;25037;49.488;9.900;2022-09-21T07:50:14;4.35;;;2.90;;
39324;SDS011;25037;49.488;9.900;2022-09-21T07:52:40;6.57;;;3.33;;
39324;SDS011;25037;49.488;9.900;2022-09-21T07:55:06;5.53;;;3.03;;
39324;SDS011;25037;49.488;9.900;2022-09-21T07:57:32;4.63;;;3.25;;
39324;SDS011;25037;49.488;9.900;2022-09-21T08:00:16;5.70;;;3.15;;
39324;SDS011;25037;49.488;9.900;2022-09-21T08:02:41;4.72;;;2.78;;
39324;SDS011;25037;49.488;9.900;2022-09-21T08:05:07;4.38;;;3.05;;
39324;SDS011;25037;49.488;9.900;2022-09-21T08:07:32;8.77;;;3.50;;
39324;SDS011;25037;49.488;9.900;2022-09-21T08:09:59;4.70;;;3.03;;
39324;SDS011;25037;49.488;9.900;2022-09-21T08:12:24;3.70;;;2.60;;
39324;SDS011;25037;49.488;9.900;2022-09-21T08:14:50;3.78;;;2.42;;
39324;SDS011;25037;49.488;9.900;2022-09-21T08:17:15;4.15;;;2.63;;
39324;SDS011;25037;49.488;9.900;2022-09-21T08:19:41;3.55;;;2.75;;
39324;SDS011;25037;49.488;9.900;2022-09-21T08:22:06;5.13;;;3.20;;
39324;SDS011;25037;49.488;9.900;2022-09-21T08:24:32;5.60;;;2.92;;
39324;SDS011;25037;49.488;9.900;2022-09-21T08:26:59;6.68;;;3.60;;
39324;SDS011;25037;49.488;9.900;2022-09-21T08:29:24;5.35;;;3.40;;
39324;SDS011;25037;49.488;9.900;2022-09-21T08:31:50;5.38;;;3.42;;
39324;SDS011;25037;49.488;9.900;2022-09-21T08:34:17;4.57;;;3.08;;
39324;SDS011;25037;49.488;9.900;2022-09-21T08:36:43;4.57;;;3.20;;
39324;SDS011;25037;49.488;9.900;2022-09-21T08:39:10;7.40;;;3.92;;
39324;SDS011;25037;49.488;9.900;2022-09-21T08:44:11;1.98;;;1.42;;
39324;SDS011;25037;49.488;9.900;2022-09-21T08:49:45;4.72;;;3.38;;
39324;SDS011;25037;49.488;9.900;2022-09-21T08:52:15;7.20;;;4.15;;
39324;SDS011;25037;49.488;9.900;2022-09-21T08:57:12;6.03;;;3.10;;
39324;SDS011;25037;49.488;9.900;2022-09-21T08:59:43;3.38;;;2.50;;
39324;SDS011;25037;49.488;9.900;2022-09-21T09:05:20;6.13;;;3.13;;
39324;SDS011;25037;49.488;9.900;2022-09-21T09:11:00;4.03;;;2.60;;
39324;SDS011;25037;49.488;9.900;2022-09-21T09:17:10;3.42;;;2.60;;
39324;SDS011;25037;49.488;9.900;2022-09-21T09:20:02;3.08;;;2.50;;
39324;SDS011;25037;49.488;9.900;2022-09-21T09:22:38;4.90;;;3.08;;
39324;SDS011;25037;49.488;9.900;2022-09-21T09:25:14;4.03;;;2.80;;
39324;SDS011;25037;49.488;9.900;2022-09-21T09:27:52;3.70;;;2.90;;
39324;SDS011;25037;49.488;9.900;2022-09-21T09:32:52;4.65;;;3.13;;
39324;SDS011;25037;49.488;9.900;2022-09-21T09:37:54;3.55;;;2.55;;
39324;SDS011;25037;49.488;9.900;2022-09-21T09:40:47;4.20;;;2.95;;
39324;SDS011;25037;49.488;9.900;2022-09-21T09:46:30;3.40;;;2.35;;
39324;SDS011;25037;49.488;9.900;2022-09-21T09:51:47;4.97;;;2.78;;
39324;SDS011;25037;49.488;9.900;2022-09-21T09:54:13;3.22;;;2.33;;
39324;SDS011;25037;49.488;9.900;2022-09-21T09:56:40;3.65;;;2.50;;
39324;SDS011;25037;49.488;9.900;2022-09-21T09:59:11;4.28;;;2.60;;
39324;SDS011;25037;49.488;9.900;2022-09-21T10:02:04;3.90;;;2.80;;
39324;SDS011;25037;49.488;9.900;2022-09-21T10:04:32;4.95;;;2.78;;
39324;SDS011;25037;49.488;9.900;2022-09-21T10:06:58;3.38;;;2.05;;
39324;SDS011;25037;49.488;9.900;2022-09-21T10:11:50;4.85;;;2.45;;
39324;SDS011;25037;49.488;9.900;2022-09-21T10:14:19;4.28;;;2.78;;
39324;SDS011;25037;49.488;9.900;2022-09-21T10:16:47;4.38;;;2.88;;
39324;SDS011;25037;49.488;9.900;2022-09-21T10:19:19;5.25;;;2.95;;
39324;SDS011;25037;49.488;9.900;2022-09-21T10:21:47;4.30;;;3.25;;
39324;SDS011;25037;49.488;9.900;2022-09-21T10:24:25;4.15;;;2.60;;
39324;SDS011;25037;49.488;9.900;2022-09-21T10:29:45;4.05;;;2.47;;
39324;SDS011;25037;49.488;9.900;2022-09-21T10:34:37;4.05;;;2.95;;
39324;SDS011;25037;49.488;9.900;2022-09-21T10:37:25;3.72;;;2.78;;
39324;SDS011;25037;49.488;9.900;2022-09-21T10:39:58;4.40;;;3.30;;
39324;SDS011;25037;49.488;9.900;2022-09-21T10:42:33;3.75;;;2.08;;
39324;SDS011;25037;49.488;9.900;2022-09-21T10:47:42;3.53;;;2.58;;
39324;SDS011;25037;49.488;9.900;2022-09-21T10:50:33;4.18;;;2.58;;
39324;SDS011;25037;49.488;9.900;2022-09-21T10:55:35;5.00;;;2.47;;
39324;SDS011;25037;49.488;9.900;2022-09-21T10:58:11;3.10;;;2.30;;
39324;SDS011;25037;49.488;9.900;2022-09-21T11:00:40;2.55;;;1.50;;
39324;SDS011;25037;49.488;9.900;2022-09-21T11:05:55;3.60;;;2.00;;
39324;SDS011;25037;49.488;9.900;2022-09-21T11:08:37;2.38;;;1.63;;
39324;SDS011;25037;49.488;9.900;2022-09-21T11:11:20;3.38;;;2.40;;
39324;SDS011;25037;49.488;9.900;2022-09-21T11:17:21;3.77;;;2.10;;
39324;SDS011;25037;49.488;9.900;2022-09-21T11:22:17;3.75;;;1.70;;
39324;SDS011;25037;49.488;9.900;2022-09-21T11:25:33;2.10;;;1.33;;
39324;SDS011;25037;49.488;9.900;2022-09-21T11:31:04;3.35;;;2.60;;
39324;SDS011;25037;49.488;9.900;2022-09-21T11:33:39;2.85;;;2.15;;
39324;SDS011;25037;49.488;9.900;2022-09-21T11:36:19;3.95;;;2.75;;
39324;SDS011;25037;49.488;9.900;2022-09-21T11:49:52;2.28;;;1.10;;
39324;SDS011;25037;49.488;9.900;2022-09-21T11:55:46;1.92;;;1.67;;
39324;SDS011;25037;49.488;9.900;2022-09-21T12:03:37;2.33;;;1.85;;
39324;SDS011;25037;49.488;9.900;2022-09-21T12:11:42;2.83;;;2.08;;
39324;SDS011;25037;49.488;9.900;2022-09-21T12:14:36;1.13;;;1.00;;
39324;SDS011;25037;49.488;9.900;2022-09-21T12:17:15;2.08;;;1.98;;
39324;SDS011;25037;49.488;9.900;2022-09-21T12:19:57;6.25;;;2.35;;
39324;SDS011;25037;49.488;9.900;2022-09-21T12:22:35;2.63;;;1.77;;
39324;SDS011;25037;49.488;9.900;2022-09-21T12:25:12;1.73;;;1.63;;
39324;SDS011;25037;49.488;9.900;2022-09-21T12:30:23;2.30;;;2.10;;
39324;SDS011;25037;49.488;9.900;2022-09-21T12:35:23;2.55;;;2.35;;
39324;SDS011;25037;49.488;9.900;2022-09-21T12:38:03;2.95;;;2.65;;
39324;SDS011;25037;49.488;9.900;2022-09-21T12:40:47;2.45;;;2.25;;
39324;SDS011;25037;49.488;9.900;2022-09-21T12:43:31;2.63;;;2.42;;
39324;SDS011;25037;49.488;9.900;2022-09-21T12:48:47;6.72;;;6.43;;
39324;SDS011;25037;49.488;9.900;2022-09-21T12:51:15;3.30;;;3.10;;
39324;SDS011;25037;49.488;9.900;2022-09-21T12:53:47;3.75;;;3.45;;
39324;SDS011;25037;49.488;9.900;2022-09-21T12:56:23;2.75;;;2.55;;
39324;SDS011;25037;49.488;9.900;2022-09-21T13:01:51;8.75;;;7.88;;
39324;SDS011;25037;49.488;9.900;2022-09-21T13:04:42;11.02;;;10.52;;
39324;SDS011;25037;49.488;9.900;2022-09-21T13:07:31;22.50;;;21.70;;
39324;SDS011;25037;49.488;9.900;2022-09-21T13:11:04;22.77;;;21.85;;
39324;SDS011;25037;49.488;9.900;2022-09-21T13:15:51;6.20;;;5.75;;
39324;SDS011;25037;49.488;9.900;2022-09-21T13:18:28;5.68;;;5.32;;
39324;SDS011;25037;49.488;9.900;2022-09-21T13:20:56;6.70;;;6.35;;
39324;SDS011;25037;49.488;9.900;2022-09-21T13:23:24;8.13;;;7.72;;
39324;SDS011;25037;49.488;9.900;2022-09-21T13:26:00;10.13;;;9.68;;
39324;SDS011;25037;49.488;9.900;2022-09-21T13:34:20;10.13;;;9.65;;
39324;SDS011;25037;49.488;9.900;2022-09-21T13:37:32;16.48;;;15.77;;
39324;SDS011;25037;49.488;9.900;2022-09-21T13:39:35;23.65;;;22.75;;
39324;SDS011;25037;49.488;9.900;2022-09-21T13:44:59;9.15;;;8.68;;
39324;SDS011;25037;49.488;9.900;2022-09-21T13:47:29;8.27;;;7.88;;
39324;SDS011;25037;49.488;9.900;2022-09-21T13:49:56;10.15;;;9.57;;
39324;SDS011;25037;49.488;9.900;2022-09-21T13:55:04;15.13;;;14.38;;
39324;SDS011;25037;49.488;9.900;2022-09-21T13:57:45;168.25;;;162.07;;
39324;SDS011;25037;49.488;9.900;2022-09-21T14:02:45;140.00;;;134.60;;
39324;SDS011;25037;49.488;9.900;2022-09-21T14:10:40;130.50;;;125.78;;
39324;SDS011;25037;49.488;9.900;2022-09-21T14:13:29;147.43;;;141.90;;
39324;SDS011;25037;49.488;9.900;2022-09-21T14:18:58;82.70;;;79.57;;
39324;SDS011;25037;49.488;9.900;2022-09-21T14:21:25;162.13;;;156.15;;
39324;SDS011;25037;49.488;9.900;2022-09-21T14:26:56;46.05;;;44.25;;
39324;SDS011;25037;49.488;9.900;2022-09-21T14:29:43;52.85;;;50.88;;
39324;SDS011;25037;49.488;9.900;2022-09-21T14:32:14;52.42;;;50.42;;
39324;SDS011;25037;49.488;9.900;2022-09-21T14:34:43;121.03;;;116.57;;
39324;SDS011;25037;49.488;9.900;2022-09-21T14:40:03;112.03;;;107.78;;
39324;SDS011;25037;49.488;9.900;2022-09-21T14:42:40;43.20;;;41.53;;
39324;SDS011;25037;49.488;9.900;2022-09-21T14:45:09;38.03;;;36.53;;
39324;SDS011;25037;49.488;9.900;2022-09-21T15:00:45;51.78;;;49.80;;
39324;SDS011;25037;49.488;9.900;2022-09-21T15:05:55;28.42;;;27.30;;
39324;SDS011;25037;49.488;9.900;2022-09-21T15:09:00;4.00;;;3.78;;
39324;SDS011;25037;49.488;9.900;2022-09-21T15:12:08;11.35;;;10.85;;
39324;SDS011;25037;49.488;9.900;2022-09-21T15:14:40;8.48;;;8.07;;
39324;SDS011;25037;49.488;9.900;2022-09-21T15:17:26;9.55;;;9.13;;
39324;SDS011;25037;49.488;9.900;2022-09-21T15:19:57;9.05;;;8.68;;
39324;SDS011;25037;49.488;9.900;2022-09-21T15:22:24;8.40;;;8.00;;
39324;SDS011;25037;49.488;9.900;2022-09-21T15:24:55;9.93;;;9.52;;
39324;SDS011;25037;49.488;9.900;2022-09-21T15:27:26;19.45;;;18.65;;
39324;SDS011;25037;49.488;9.900;2022-09-21T15:29:57;14.00;;;13.40;;
39324;SDS011;25037;49.488;9.900;2022-09-21T15:35:05;24.98;;;24.05;;
39324;SDS011;25037;49.488;9.900;2022-09-21T15:37:39;31.67;;;30.50;;
39324;SDS011;25037;49.488;9.900;2022-09-21T15:40:06;16.10;;;15.40;;
39324;SDS011;25037;49.488;9.900;2022-09-21T15:45:29;35.28;;;33.97;;
39324;SDS011;25037;49.488;9.900;2022-09-21T15:48:09;7.18;;;6.82;;
39324;SDS011;25037;49.488;9.900;2022-09-21T15:50:37;13.27;;;12.68;;
39324;SDS011;25037;49.488;9.900;2022-09-21T15:53:06;5.72;;;5.32;;
39324;SDS011;25037;49.488;9.900;2022-09-21T15:55:39;11.45;;;11.00;;
39324;SDS011;25037;49.488;9.900;2022-09-21T15:58:18;23.83;;;22.83;;
39324;SDS011;25037;49.488;9.900;2022-09-21T16:00:51;10.48;;;9.98;;
39324;SDS011;25037;49.488;9.900;2022-09-21T16:03:20;6.00;;;5.68;;
39324;SDS011;25037;49.488;9.900;2022-09-21T16:05:49;7.50;;;7.18;;
39324;SDS011;25037;49.488;9.900;2022-09-21T16:08:35;5.63;;;5.32;;
39324;SDS011;25037;49.488;9.900;2022-09-21T16:13:38;10.20;;;9.77;;
39324;SDS011;25037;49.488;9.900;2022-09-21T16:16:24;5.30;;;5.05;;
39324;SDS011;25037;49.488;9.900;2022-09-21T16:18:51;7.13;;;6.78;;
39324;SDS011;25037;49.488;9.900;2022-09-21T16:21:26;5.93;;;5.60;;
39324;SDS011;25037;49.488;9.900;2022-09-21T16:24:34;2.58;;;2.33;;
39324;SDS011;25037;49.488;9.900;2022-09-21T16:26:56;2.42;;;2.28;;
39324;SDS011;25037;49.488;9.900;2022-09-21T16:29:27;3.60;;;3.40;;
39324;SDS011;25037;49.488;9.900;2022-09-21T16:32:18;8.52;;;7.95;;
39324;SDS011;25037;49.488;9.900;2022-09-21T16:37:49;16.55;;;15.93;;
39324;SDS011;25037;49.488;9.900;2022-09-21T16:40:15;28.83;;;27.70;;
39324;SDS011;25037;49.488;9.900;2022-09-21T16:42:41;21.40;;;20.52;;
39324;SDS011;25037;49.488;9.900;2022-09-21T16:45:15;32.28;;;31.08;;
39324;SDS011;25037;49.488;9.900;2022-09-21T16:47:46;22.80;;;21.85;;
39324;SDS011;25037;49.488;9.900;2022-09-21T16:50:12;58.17;;;56.08;;
39324;SDS011;25037;49.488;9.900;2022-09-21T16:52:40;157.38;;;149.40;;
39324;SDS011;25037;49.488;9.900;2022-09-21T16:55:05;70.07;;;67.57;;
39324;SDS011;25037;49.488;9.900;2022-09-21T16:57:31;116.70;;;112.63;;
39324;SDS011;25037;49.488;9.900;2022-09-21T16:59:58;175.13;;;169.02;;
39324;SDS011;25037;49.488;9.900;2022-09-21T17:02:23;157.20;;;151.68;;
39324;SDS011;25037;49.488;9.900;2022-09-21T17:04:49;157.60;;;151.90;;
39324;SDS011;25037;49.488;9.900;2022-09-21T17:07:14;186.90;;;180.27;;
39324;SDS011;25037;49.488;9.900;2022-09-21T17:09:44;113.93;;;109.88;;
39324;SDS011;25037;49.488;9.900;2022-09-21T17:12:12;121.78;;;117.50;;
39324;SDS011;25037;49.488;9.900;2022-09-21T17:14:40;87.20;;;84.22;;
39324;SDS011;25037;49.488;9.900;2022-09-21T17:19:36;218.63;;;210.88;;
39324;SDS011;25037;49.488;9.900;2022-09-21T17:22:03;187.95;;;181.27;;
39324;SDS011;25037;49.488;9.900;2022-09-21T17:24:29;239.77;;;230.90;;
39324;SDS011;25037;49.488;9.900;2022-09-21T17:26:55;239.43;;;230.95;;
39324;SDS011;25037;49.488;9.900;2022-09-21T17:29:22;246.35;;;237.57;;
39324;SDS011;25037;49.488;9.900;2022-09-21T17:31:55;213.68;;;205.45;;
39324;SDS011;25037;49.488;9.900;2022-09-21T17:34:23;250.68;;;241.50;;
39324;SDS011;25037;49.488;9.900;2022-09-21T17:36:50;215.75;;;207.93;;
39324;SDS011;25037;49.488;9.900;2022-09-21T17:39:17;233.88;;;225.68;;
39324;SDS011;25037;49.488;9.900;2022-09-21T17:41:45;224.20;;;216.05;;
39324;SDS011;25037;49.488;9.900;2022-09-21T17:47:12;203.23;;;195.77;;
39324;SDS011;25037;49.488;9.900;2022-09-21T17:49:44;206.48;;;198.95;;
39324;SDS011;25037;49.488;9.900;2022-09-21T17:52:15;174.07;;;167.45;;
39324;SDS011;25037;49.488;9.900;2022-09-21T17:55:04;187.70;;;180.80;;
39324;SDS011;25037;49.488;9.900;2022-09-21T18:00:21;188.85;;;181.90;;
39324;SDS011;25037;49.488;9.900;2022-09-21T18:02:48;212.93;;;205.02;;
39324;SDS011;25037;49.488;9.900;2022-09-21T18:07:40;163.63;;;157.45;;
39324;SDS011;25037;49.488;9.900;2022-09-21T18:10:06;176.48;;;170.10;;
39324;SDS011;25037;49.488;9.900;2022-09-21T18:15:21;160.55;;;154.52;;
39324;SDS011;25037;49.488;9.900;2022-09-21T18:20:53;110.35;;;106.22;;
39324;SDS011;25037;49.488;9.900;2022-09-21T18:23:45;152.07;;;146.40;;
39324;SDS011;25037;49.488;9.900;2022-09-21T18:26:33;143.45;;;138.25;;
39324;SDS011;25037;49.488;9.900;2022-09-21T18:28:59;118.28;;;114.07;;
39324;SDS011;25037;49.488;9.900;2022-09-21T18:31:36;101.20;;;97.45;;